createdAt,value
2022-08-11T10:24:48.259Z,36.32
2022-08-11T10:25:48.029Z,36.36
2022-08-11T10:26:28.238Z,37.46
2022-08-11T10:27:34.790Z,37.28
2022-08-11T10:28:33.518Z,38.70
2022-08-11T10:29:31.360Z,37.04
2022-08-11T10:30:27.964Z,37.85
2022-08-11T10:31:31.256Z,41.12
2022-08-11T10:32:31.521Z,40.92
2022-08-11T10:33:37.057Z,39.09
2022-08-11T10:34:29.097Z,36.88
2022-08-11T10:35:26.861Z,36.72
2022-08-11T10:36:26.837Z,34.90
2022-08-11T10:38:08.587Z,33.59
2022-08-11T10:38:28.095Z,34.83
2022-08-11T10:39:26.864Z,32.95
2022-08-11T10:40:26.805Z,32.73
2022-08-11T10:41:27.045Z,30.66
2022-08-11T10:42:47.756Z,32.40
2022-08-11T10:44:03.269Z,31.70
2022-08-11T10:44:28.108Z,31.20
2022-08-11T10:45:26.745Z,31.40
2022-08-11T10:46:29.725Z,30.99
2022-08-11T10:47:26.964Z,30.13
2022-08-11T10:48:26.769Z,31.57
2022-08-11T10:49:26.657Z,32.24
2022-08-11T10:50:26.647Z,30.39
2022-08-11T10:51:51.250Z,29.03
2022-08-11T10:52:27.659Z,29.50
2022-08-11T10:53:26.618Z,30.65
2022-08-11T10:54:26.901Z,30.85
2022-08-11T10:55:26.596Z,32.20
2022-08-11T10:56:26.582Z,30.17
2022-08-11T10:57:27.856Z,30.96
2022-08-11T10:58:26.848Z,30.26
2022-08-11T10:59:26.531Z,29.68
2022-08-11T11:00:26.516Z,28.82
2022-08-11T11:01:26.587Z,34.08
2022-08-11T11:02:26.500Z,29.81
2022-08-11T11:03:26.493Z,32.71
2022-08-11T11:04:26.491Z,29.61
2022-08-11T11:05:26.463Z,30.51
2022-08-11T11:06:28.902Z,32.53
2022-08-11T11:07:26.453Z,31.07
2022-08-11T11:15:58.219Z,28.67
2022-08-11T11:16:59.926Z,29.82
2022-08-11T11:17:58.194Z,29.52
2022-08-11T11:19:00.937Z,29.13
2022-08-11T11:19:59.664Z,30.02
2022-08-11T11:20:58.176Z,30.71
2022-08-11T11:21:58.425Z,31.30
2022-08-11T11:22:58.225Z,31.99
2022-08-11T11:23:58.141Z,29.74
2022-08-11T11:24:58.146Z,29.64
2022-08-11T11:25:58.479Z,30.03
2022-08-11T11:26:58.376Z,32.08
2022-08-11T11:27:58.097Z,31.09
2022-08-11T11:28:58.112Z,30.31
2022-08-11T11:29:58.311Z,29.72
2022-08-11T11:30:58.074Z,29.93
2022-08-11T11:31:58.045Z,31.87
2022-08-11T11:32:58.074Z,29.63
2022-08-11T11:34:12.198Z,30.58
2022-08-11T11:34:59.975Z,28.82
